Time;durP1;ratioP1;P1;durP2;ratioP2;P2;SDS_P1;SDS_P2;PMS_P1;PMS_P2;Temp;Humidity;BMP_temperature;BMP_pressure;BME280_temperature;BME280_humidity;BME280_pressure;Samples;Min_cycle;Max_cycle;Signal;HPM_P1;HPM_P2
2021/07/10 00:01:08;;;;;;;3.75;2.60;;;;;;;31.44;28.96;94677.19;5093450;28;20051;-53
2021/07/10 00:03:35;;;;;;;3.33;2.78;;;;;;;31.31;28.92;94678.97;5094970;28;20047;-56
2021/07/10 00:06:02;;;;;;;3.40;2.55;;;;;;;31.83;28.26;94665.69;5095204;28;20043;-57
2021/07/10 00:08:29;;;;;;;3.17;2.60;;;;;;;31.14;29.03;94659.91;5094116;28;20044;-56
2021/07/10 00:10:56;;;;;;;4.13;2.70;;;;;;;31.40;28.50;94660.28;5094693;28;20070;-57
2021/07/10 00:13:24;;;;;;;3.17;2.60;;;;;;;31.43;28.71;94662.16;5094766;28;20055;-54
2021/07/10 00:15:52;;;;;;;5.20;2.80;;;;;;;31.79;28.11;94663.06;5093742;28;20047;-57
2021/07/10 00:18:20;;;;;;;5.13;2.72;;;;;;;31.62;28.42;94658.72;5094697;28;20043;-51
2021/07/10 00:20:47;;;;;;;4.88;2.70;;;;;;;31.27;28.65;94657.41;5094656;28;20040;-53
2021/07/10 00:23:14;;;;;;;3.53;2.40;;;;;;;31.52;28.12;94657.00;5094445;28;20048;-53
2021/07/10 00:25:42;;;;;;;4.15;2.58;;;;;;;32.03;27.77;94652.19;5113995;28;20046;-57
2021/07/10 00:28:09;;;;;;;3.38;2.42;;;;;;;31.23;28.74;94657.47;5114413;28;20043;-55
2021/07/10 00:30:36;;;;;;;5.53;2.53;;;;;;;31.34;28.81;94646.50;5111352;28;20069;-56
2021/07/10 00:33:04;;;;;;;4.18;2.67;;;;;;;31.11;28.71;94638.38;5074329;28;20064;-55
2021/07/10 00:35:31;;;;;;;4.32;2.67;;;;;;;31.29;28.17;94644.28;5073258;28;20051;-55
2021/07/10 00:37:58;;;;;;;2.92;2.50;;;;;;;31.48;28.35;94656.25;5074515;28;20056;-55
2021/07/10 00:40:25;;;;;;;4.53;2.53;;;;;;;31.30;28.47;94645.78;5090592;28;20040;-57
2021/07/10 00:42:52;;;;;;;4.15;2.70;;;;;;;31.25;28.27;94643.56;5076226;28;20060;-55
2021/07/10 00:45:20;;;;;;;4.43;2.60;;;;;;;30.83;28.56;94639.59;5094827;28;20063;-52
2021/07/10 00:47:47;;;;;;;3.53;2.60;;;;;;;31.17;28.24;94637.50;5114749;28;20393;-52
2021/07/10 00:50:20;;;;;;;5.30;2.67;;;;;;;30.64;28.44;94633.69;5105504;28;20043;-54
2021/07/10 00:52:48;;;;;;;3.92;2.63;;;;;;;31.10;27.91;94637.59;5114254;28;20051;-53
2021/07/10 00:55:15;;;;;;;3.60;2.58;;;;;;;31.06;27.95;94634.22;5114220;28;20043;-54
2021/07/10 00:57:43;;;;;;;4.20;2.40;;;;;;;31.03;28.15;94636.97;5096968;28;20051;-54
2021/07/10 01:00:16;;;;;;;5.38;2.83;;;;;;;31.04;27.88;94627.69;5114562;28;20407;-53
2021/07/10 01:02:44;;;;;;;3.22;2.65;;;;;;;30.71;28.68;94623.97;5114822;28;20049;-53
2021/07/10 01:05:15;;;;;;;5.75;3.05;;;;;;;30.40;29.32;94621.28;5100154;28;20047;-56
2021/07/10 01:07:42;;;;;;;10.18;3.67;;;;;;;30.67;28.96;94611.28;5118516;28;20047;-54
2021/07/10 01:10:11;;;;;;;4.63;2.80;;;;;;;31.13;28.12;94609.78;5118434;28;20057;-54
2021/07/10 01:12:38;;;;;;;3.25;2.55;;;;;;;30.69;28.54;94600.84;5118598;28;20403;-56
2021/07/10 01:15:10;;;;;;;2.92;2.60;;;;;;;30.64;28.54;94606.72;5117977;28;20114;-51
2021/07/10 01:17:37;;;;;;;3.17;2.63;;;;;;;30.41;28.64;94614.72;5118895;28;20054;-55
2021/07/10 01:20:11;;;;;;;4.43;3.00;;;;;;;30.74;28.11;94615.06;5118165;28;20437;-52
2021/07/10 01:22:39;;;;;;;6.53;2.97;;;;;;;30.55;28.74;94619.94;5117591;28;20073;-56
2021/07/10 01:25:09;;;;;;;4.00;2.78;;;;;;;31.46;27.76;94620.81;5089161;28;20040;-54
2021/07/10 01:27:36;;;;;;;5.13;2.92;;;;;;;30.76;28.78;94620.81;5080137;28;20051;-53
2021/07/10 01:30:08;;;;;;;4.63;2.90;;;;;;;30.83;28.79;94612.59;5097220;28;20047;-52
2021/07/10 01:32:37;;;;;;;4.10;2.85;;;;;;;30.32;29.57;94611.78;5117304;28;20126;-54
2021/07/10 01:35:05;;;;;;;3.08;2.50;;;;;;;30.63;28.84;94602.50;5118111;28;20040;-56
2021/07/10 01:37:32;;;;;;;3.25;2.95;;;;;;;30.81;28.61;94606.84;5118501;28;20044;-56
2021/07/10 01:39:59;;;;;;;3.83;3.10;;;;;;;31.03;28.23;94599.19;5116786;28;20039;-55
2021/07/10 01:42:26;;;;;;;3.28;2.97;;;;;;;31.03;28.46;94599.19;5116834;28;20051;-53
2021/07/10 01:44:53;;;;;;;4.80;2.72;;;;;;;31.21;28.22;94584.22;5116663;28;20055;-54
2021/07/10 01:47:20;;;;;;;3.63;3.00;;;;;;;30.75;28.85;94584.97;5117934;28;20043;-53
2021/07/10 01:49:47;;;;;;;3.20;2.90;;;;;;;30.58;29.50;94581.34;5113514;28;20043;-56
2021/07/10 01:52:14;;;;;;;8.18;4.10;;;;;;;30.57;29.31;94585.22;5107026;28;20040;-54
2021/07/10 01:54:41;;;;;;;4.50;3.13;;;;;;;30.97;28.97;94585.41;5117271;28;20051;-51
2021/07/10 01:57:09;;;;;;;3.22;2.92;;;;;;;31.27;28.61;94582.56;5118119;28;20348;-51
2021/07/10 01:59:37;;;;;;;3.08;2.72;;;;;;;31.21;28.58;94580.75;5118046;28;20058;-55
2021/07/10 02:02:05;;;;;;;5.07;2.90;;;;;;;31.39;28.06;94583.13;5095727;28;20047;-56
2021/07/10 02:04:42;;;;;;;3.75;2.83;;;;;;;30.72;29.13;94579.66;5096153;28;20059;-55
2021/07/10 02:07:10;;;;;;;3.97;3.22;;;;;;;30.60;29.28;94587.13;5097301;28;20044;-58
2021/07/10 02:09:37;;;;;;;4.90;2.97;;;;;;;31.12;28.51;94589.38;5097408;28;20056;-53
2021/07/10 02:12:04;;;;;;;4.28;3.13;;;;;;;30.84;29.15;94592.53;5113668;28;20051;-58
2021/07/10 02:14:31;;;;;;;3.88;2.95;;;;;;;30.45;29.68;94599.28;5115804;28;20043;-55
2021/07/10 02:16:59;;;;;;;3.45;3.15;;;;;;;30.68;29.21;94602.03;5117737;28;20040;-56
2021/07/10 02:19:26;;;;;;;3.45;3.13;;;;;;;31.01;29.25;94607.69;5117502;28;20048;-57
2021/07/10 02:21:53;;;;;;;4.35;3.25;;;;;;;30.57;29.55;94600.66;5117320;28;20054;-55
2021/07/10 02:24:20;;;;;;;3.25;2.95;;;;;;;30.96;28.85;94600.03;5115989;28;20050;-54
2021/07/10 02:26:47;;;;;;;4.22;3.08;;;;;;;30.86;29.29;94606.38;5117492;28;20062;-54
2021/07/10 02:29:14;;;;;;;3.40;2.90;;;;;;;30.63;29.56;94591.69;5098781;28;20044;-52
2021/07/10 02:31:41;;;;;;;3.63;3.20;;;;;;;30.50;29.77;94600.75;5116345;28;20047;-51
2021/07/10 02:34:08;;;;;;;3.25;2.92;;;;;;;30.81;29.51;94604.16;5116432;28;20054;-54
2021/07/10 02:36:36;;;;;;;3.75;2.88;;;;;;;30.65;29.34;94608.25;5116293;28;20051;-52
2021/07/10 02:39:03;;;;;;;5.60;2.97;;;;;;;31.12;28.67;94605.56;5116679;28;20442;-53
2021/07/10 02:41:31;;;;;;;4.90;3.03;;;;;;;30.69;29.26;94608.94;5111893;28;20056;-52
2021/07/10 02:43:58;;;;;;;4.38;2.88;;;;;;;30.52;29.34;94607.25;5096724;28;20359;-52
2021/07/10 02:46:25;;;;;;;3.50;2.80;;;;;;;30.62;29.16;94613.69;5096463;28;20050;-57
2021/07/10 02:48:53;;;;;;;2.85;2.55;;;;;;;30.75;29.11;94598.47;5096675;28;20055;-54
2021/07/10 02:51:20;;;;;;;4.07;3.00;;;;;;;30.38;29.57;94610.16;5096294;28;20048;-53
2021/07/10 02:53:47;;;;;;;4.25;2.92;;;;;;;30.53;29.19;94606.09;5095689;28;20052;-55
2021/07/10 02:56:14;;;;;;;4.32;2.95;;;;;;;30.45;29.62;94604.69;5090894;28;20040;-52
2021/07/10 02:58:43;;;;;;;3.75;2.85;;;;;;;29.44;31.21;94603.56;5076230;28;20043;-51
2021/07/10 03:01:10;;;;;;;5.30;2.90;;;;;;;30.28;29.61;94605.69;5083549;28;20365;-57
2021/07/10 03:03:37;;;;;;;3.40;3.10;;;;;;;30.39;29.49;94600.91;5095488;28;20069;-52
2021/07/10 03:06:04;;;;;;;7.13;2.92;;;;;;;30.38;29.52;94604.75;5094890;28;20052;-52
2021/07/10 03:08:31;;;;;;;3.15;2.85;;;;;;;30.14;30.28;94600.47;5096267;28;20051;-52
2021/07/10 03:10:58;;;;;;;3.72;2.60;;;;;;;29.98;30.20;94609.91;5095856;28;20052;-57
2021/07/10 03:13:26;;;;;;;5.90;3.00;;;;;;;30.77;29.11;94598.06;5095055;28;20063;-56
2021/07/10 03:15:53;;;;;;;3.90;2.80;;;;;;;30.38;29.69;94593.97;5095566;28;20056;-57
2021/07/10 03:18:20;;;;;;;6.70;3.10;;;;;;;30.71;29.08;94596.97;5095444;28;20044;-58
2021/07/10 03:20:47;;;;;;;4.03;3.08;;;;;;;30.60;29.40;94589.81;5096082;28;20059;-58
2021/07/10 03:23:14;;;;;;;6.50;3.17;;;;;;;29.87;30.44;94590.41;5094899;28;20054;-56
2021/07/10 03:25:43;;;;;;;3.45;2.90;;;;;;;30.25;29.99;94601.13;5094556;28;20369;-53
2021/07/10 03:28:11;;;;;;;3.20;2.85;;;;;;;30.25;30.26;94595.72;5095303;28;20059;-56
2021/07/10 03:30:38;;;;;;;3.80;2.83;;;;;;;30.58;29.83;94592.13;5094764;28;20060;-54
2021/07/10 03:33:05;;;;;;;5.38;2.90;;;;;;;30.27;30.32;94579.91;5095682;28;20051;-56
2021/07/10 03:35:32;;;;;;;5.28;3.28;;;;;;;30.25;30.75;94590.31;5094351;28;20047;-57
2021/07/10 03:38:00;;;;;;;3.47;2.78;;;;;;;30.41;30.28;94587.00;5095718;28;20047;-55
2021/07/10 03:40:28;;;;;;;4.28;3.00;;;;;;;30.37;30.26;94589.75;5094582;28;20043;-58
2021/07/10 03:42:55;;;;;;;4.22;3.13;;;;;;;30.20;30.92;94601.56;5111480;28;20047;-54
2021/07/10 03:45:22;;;;;;;4.65;3.25;;;;;;;30.50;30.44;94600.75;5114691;28;20051;-54
2021/07/10 03:47:49;;;;;;;4.45;3.03;;;;;;;30.17;30.91;94596.97;5114913;28;20054;-56
2021/07/10 03:50:18;;;;;;;5.03;2.95;;;;;;;30.40;30.31;94605.13;5114772;28;20047;-57
2021/07/10 03:52:45;;;;;;;5.63;3.38;;;;;;;30.80;30.01;94603.41;5115675;28;20058;-55
2021/07/10 03:55:13;;;;;;;3.53;3.20;;;;;;;30.36;30.83;94597.09;5114178;28;20043;-57
2021/07/10 03:57:41;;;;;;;4.43;3.20;;;;;;;30.58;30.44;94608.31;5115499;28;20457;-55
2021/07/10 04:00:12;;;;;;;4.55;2.92;;;;;;;30.17;31.20;94605.06;5115700;28;20774;-53
2021/07/10 04:02:39;;;;;;;4.82;3.20;;;;;;;30.77;30.44;94595.38;5114718;28;20058;-55
2021/07/10 04:05:08;;;;;;;3.33;2.90;;;;;;;30.58;31.15;94597.53;5114773;28;20051;-57
2021/07/10 04:07:35;;;;;;;6.47;2.92;;;;;;;30.47;31.13;94596.94;5115648;28;20051;-52
2021/07/10 04:10:04;;;;;;;3.55;2.80;;;;;;;30.14;31.84;94595.84;5115536;28;20043;-55
2021/07/10 04:12:31;;;;;;;4.38;3.00;;;;;;;30.32;31.05;94595.59;5115258;28;20055;-54
2021/07/10 04:15:02;;;;;;;4.30;3.08;;;;;;;30.55;30.36;94584.88;5114957;28;20438;-56
2021/07/10 04:17:33;;;;;;;3.53;3.10;;;;;;;30.19;31.11;94602.72;5114519;28;20365;-54
2021/07/10 04:20:00;;;;;;;3.95;3.20;;;;;;;30.64;30.13;94590.53;5115433;28;20044;-52
2021/07/10 04:22:28;;;;;;;3.78;3.00;;;;;;;30.91;29.70;94587.03;5114288;28;20058;-57
2021/07/10 04:24:55;;;;;;;5.25;3.10;;;;;;;30.44;30.53;94586.19;5111467;28;21526;-53
2021/07/10 04:27:22;;;;;;;5.18;3.60;;;;;;;30.14;30.67;94578.91;5094674;28;20051;-54
2021/07/10 04:29:50;;;;;;;8.10;3.33;;;;;;;30.35;30.52;94589.41;5094145;28;20046;-53
2021/07/10 04:32:17;;;;;;;7.28;3.60;;;;;;;30.34;30.46;94594.03;5094979;28;20047;-55
2021/07/10 04:34:45;;;;;;;4.10;2.80;;;;;;;30.48;30.93;94579.59;5101886;28;20058;-55
2021/07/10 04:37:13;;;;;;;4.18;3.03;;;;;;;30.17;31.63;94589.63;5114336;28;20043;-54
2021/07/10 04:39:40;;;;;;;4.88;2.90;;;;;;;30.11;30.28;94585.88;5114341;28;20048;-54
2021/07/10 04:42:07;;;;;;;4.15;3.40;;;;;;;30.25;29.69;94585.69;5114681;28;20242;-55
2021/07/10 04:44:35;;;;;;;6.30;2.90;;;;;;;30.91;29.38;94587.03;5110602;28;20044;-57
2021/07/10 04:47:03;;;;;;;4.45;2.90;;;;;;;30.46;30.03;94590.03;5094441;28;20468;-56
2021/07/10 04:49:30;;;;;;;3.30;3.00;;;;;;;30.50;30.12;94596.13;5093805;28;20052;-53
2021/07/10 04:51:57;;;;;;;5.03;3.13;;;;;;;30.49;30.57;94589.22;5094496;28;20056;-58
2021/07/10 04:54:24;;;;;;;5.78;3.35;;;;;;;30.16;31.63;94592.75;5093063;28;20517;-55
2021/07/10 04:56:51;;;;;;;4.05;3.30;;;;;;;30.41;30.93;94587.75;5093574;28;20055;-54
2021/07/10 04:59:18;;;;;;;3.70;3.35;;;;;;;30.36;30.86;94594.38;5093980;28;20354;-56
2021/07/10 05:01:45;;;;;;;4.35;3.40;;;;;;;29.76;31.49;94590.53;5094575;28;20058;-53
2021/07/10 05:04:12;;;;;;;4.50;3.33;;;;;;;30.53;30.37;94598.00;5094415;28;20048;-54
2021/07/10 05:06:39;;;;;;;4.85;3.30;;;;;;;30.56;30.51;94583.69;5113801;28;20052;-53
2021/07/10 05:09:07;;;;;;;4.20;3.00;;;;;;;30.24;30.24;94589.56;5114763;28;20050;-55
2021/07/10 05:11:34;;;;;;;3.70;3.33;;;;;;;30.78;29.78;94588.78;5112732;28;20079;-53
2021/07/10 05:14:01;;;;;;;5.15;3.13;;;;;;;30.74;29.16;94593.50;5114347;28;20047;-55
2021/07/10 05:16:28;;;;;;;4.20;2.95;;;;;;;31.21;28.17;94594.25;5064052;28;20052;-54
2021/07/10 05:18:55;;;;;;;6.15;3.10;;;;;;;31.28;27.63;94581.41;5074283;28;20044;-57
2021/07/10 05:21:23;;;;;;;3.85;2.92;;;;;;;31.28;28.06;94584.09;5092734;28;20389;-54
2021/07/10 05:23:50;;;;;;;4.95;3.20;;;;;;;31.58;27.11;94585.09;5085463;28;20051;-54
2021/07/10 05:26:17;;;;;;;4.18;2.58;;;;;;;31.14;28.20;94599.75;5092535;28;20079;-54
2021/07/10 05:28:44;;;;;;;7.00;2.88;;;;;;;31.32;27.10;94596.78;5093609;28;20052;-56
2021/07/10 05:31:11;;;;;;;3.17;2.78;;;;;;;31.50;27.06;94595.28;5093906;28;20051;-52
2021/07/10 05:33:39;;;;;;;4.32;2.63;;;;;;;31.36;27.09;94594.75;5093204;28;20047;-54
2021/07/10 05:36:06;;;;;;;4.68;3.00;;;;;;;31.47;27.30;94595.31;5075740;28;20047;-54
2021/07/10 05:38:33;;;;;;;9.95;3.38;;;;;;;31.74;26.85;94593.28;5094241;28;20043;-53
2021/07/10 05:41:00;;;;;;;4.05;2.63;;;;;;;31.56;27.00;94599.00;5094392;28;20040;-54
2021/07/10 05:43:27;;;;;;;7.72;2.70;;;;;;;31.71;26.63;94604.13;5113265;28;20059;-53
2021/07/10 05:45:55;;;;;;;3.80;2.95;;;;;;;32.04;26.79;94594.25;5108537;28;20054;-53
2021/07/10 05:48:22;;;;;;;3.55;2.50;;;;;;;32.00;25.93;94593.53;5112934;28;20051;-55
2021/07/10 05:50:50;;;;;;;5.13;2.90;;;;;;;31.80;26.63;94599.72;5117168;28;20051;-55
2021/07/10 05:53:17;;;;;;;4.32;2.80;;;;;;;32.25;26.11;94598.41;5117162;28;20058;-52
2021/07/10 05:55:44;;;;;;;3.17;2.40;;;;;;;31.89;27.84;94594.53;5118393;28;20353;-56
2021/07/10 05:58:13;;;;;;;4.35;2.90;;;;;;;32.25;25.77;94593.75;5117287;27;20082;-58
2021/07/10 06:00:40;;;;;;;5.32;2.45;;;;;;;32.24;25.71;94603.06;5117232;28;20040;-55
2021/07/10 06:03:07;;;;;;;6.18;3.33;;;;;;;32.34;25.48;94601.34;5116407;28;20373;-52
2021/07/10 06:05:36;;;;;;;5.05;3.00;;;;;;;32.35;26.12;94603.63;5117314;28;20471;-54
2021/07/10 06:08:03;;;;;;;7.80;3.03;;;;;;;32.20;26.03;94591.56;5117562;28;20051;-53
2021/07/10 06:10:30;;;;;;;4.25;2.88;;;;;;;32.73;24.74;94608.56;5104053;28;20051;-52
2021/07/10 06:12:57;;;;;;;5.05;3.28;;;;;;;32.77;26.13;94607.28;5107272;28;20055;-52
2021/07/10 06:15:25;;;;;;;5.80;2.80;;;;;;;32.66;25.74;94600.59;5117577;28;20039;-53
2021/07/10 06:17:52;;;;;;;4.82;2.58;;;;;;;32.81;25.24;94596.44;5117328;28;20058;-54
2021/07/10 06:20:21;;;;;;;4.68;2.90;;;;;;;33.01;26.03;94605.19;5116868;28;20499;-54
2021/07/10 06:22:51;;;;;;;5.85;2.95;;;;;;;32.99;25.84;94606.81;5112685;28;20051;-53
2021/07/10 06:25:19;;;;;;;5.20;2.78;;;;;;;33.53;24.75;94612.41;5116746;28;20047;-52
2021/07/10 06:27:48;;;;;;;4.70;2.85;;;;;;;33.74;24.91;94608.34;5117182;28;20465;-60
2021/07/10 06:30:16;;;;;;;2.97;2.70;;;;;;;34.05;25.14;94605.97;5112292;28;20052;-54
2021/07/10 06:32:43;;;;;;;5.72;3.00;;;;;;;33.81;24.67;94607.41;5104440;28;20039;-54
2021/07/10 06:35:11;;;;;;;3.58;2.80;;;;;;;34.11;24.52;94612.38;5117190;28;20043;-57
2021/07/10 06:37:38;;;;;;;4.97;2.88;;;;;;;33.92;24.18;94618.75;5116332;28;20047;-55
2021/07/10 06:40:07;;;;;;;3.58;2.83;;;;;;;33.93;24.32;94609.41;5117282;28;20039;-55
2021/07/10 06:42:34;;;;;;;4.43;2.65;;;;;;;34.15;24.07;94606.84;5115682;28;20051;-57
2021/07/10 06:45:02;;;;;;;4.38;2.88;;;;;;;34.58;23.84;94612.53;5104066;28;20044;-54
2021/07/10 06:47:29;;;;;;;4.10;2.83;;;;;;;34.25;23.33;94606.53;5085640;28;20056;-52
2021/07/10 06:49:57;;;;;;;4.78;3.22;;;;;;;34.30;23.32;94608.69;5096596;28;20052;-58
2021/07/10 06:52:24;;;;;;;3.85;2.85;;;;;;;34.60;23.36;94601.25;5095527;28;20048;-56
2021/07/10 06:54:52;;;;;;;4.30;2.92;;;;;;;34.40;22.83;94606.16;5094763;28;20048;-56
2021/07/10 06:57:19;;;;;;;4.40;2.88;;;;;;;34.45;23.84;94608.31;5094852;28;20047;-53
2021/07/10 06:59:46;;;;;;;5.30;3.10;;;;;;;34.77;22.69;94605.38;5095409;28;20055;-52
2021/07/10 07:02:13;;;;;;;6.28;3.00;;;;;;;34.63;23.28;94603.88;5094844;28;20451;-55
2021/07/10 07:04:40;;;;;;;3.50;2.50;;;;;;;35.23;23.49;94612.03;5095303;28;20043;-53
2021/07/10 07:07:08;;;;;;;4.60;2.55;;;;;;;35.22;22.87;94605.09;5085092;28;20490;-53
2021/07/10 07:09:35;;;;;;;4.93;2.70;;;;;;;35.25;22.58;94608.88;5095988;28;20060;-53
2021/07/10 07:12:03;;;;;;;4.55;3.00;;;;;;;35.25;22.73;94611.59;5095129;28;20044;-54
2021/07/10 07:14:31;;;;;;;4.22;3.08;;;;;;;35.29;22.27;94614.94;5096180;28;20455;-54
2021/07/10 07:17:02;;;;;;;3.55;2.40;;;;;;;35.33;21.96;94609.38;5096191;28;20044;-54
2021/07/10 07:19:30;;;;;;;3.10;2.70;;;;;;;35.76;22.12;94608.72;5095187;28;20058;-58
2021/07/10 07:21:58;;;;;;;3.35;2.50;;;;;;;35.37;22.09;94605.38;5083195;28;20052;-56
2021/07/10 07:24:25;;;;;;;5.80;3.00;;;;;;;35.38;22.06;94608.84;5094853;28;20047;-55
2021/07/10 07:26:52;;;;;;;6.55;3.00;;;;;;;35.51;22.45;94599.47;5095933;28;20430;-59
2021/07/10 07:29:20;;;;;;;4.38;2.95;;;;;;;35.82;22.50;94609.66;5095466;28;20055;-57
2021/07/10 07:31:47;;;;;;;4.20;2.55;;;;;;;35.89;22.35;94601.25;5094848;28;20048;-58
2021/07/10 07:34:14;;;;;;;4.63;3.03;;;;;;;35.66;22.16;94598.97;5114124;28;20078;-61
2021/07/10 07:36:41;;;;;;;4.57;2.97;;;;;;;35.84;22.41;94593.66;5115126;28;20055;-60
2021/07/10 07:39:09;;;;;;;4.28;2.70;;;;;;;36.19;21.66;94601.75;5097286;28;20055;-58
2021/07/10 07:41:37;;;;;;;4.15;3.00;;;;;;;36.50;22.21;94596.31;5097966;28;20049;-57
2021/07/10 07:44:05;;;;;;;4.57;3.33;;;;;;;36.14;21.63;94601.09;5075389;28;20044;-57
2021/07/10 07:46:35;;;;;;;6.95;3.47;;;;;;;36.18;22.04;94595.53;5058915;28;20343;-61
2021/07/10 07:49:03;;;;;;;6.78;3.17;;;;;;;36.14;22.05;94594.91;5095312;28;20048;-55
2021/07/10 07:51:30;;;;;;;3.28;2.65;;;;;;;36.25;22.19;94589.06;5093987;28;20051;-55
2021/07/10 07:53:57;;;;;;;4.35;3.05;;;;;;;36.43;21.95;94594.59;5094206;28;20051;-61
2021/07/10 07:56:25;;;;;;;5.53;2.88;;;;;;;36.58;21.89;94590.13;5095260;28;20040;-49
2021/07/10 07:58:52;;;;;;;9.00;3.10;;;;;;;36.52;21.45;94591.94;5095016;28;20048;-53
2021/07/10 08:01:19;;;;;;;5.30;2.80;;;;;;;36.53;21.30;94589.97;5094198;28;20040;-54
2021/07/10 08:03:47;;;;;;;3.75;2.80;;;;;;;36.83;21.65;94582.97;5094411;28;20043;-60
2021/07/10 08:06:15;;;;;;;3.35;2.70;;;;;;;36.56;21.24;94589.81;5095223;28;20052;-60
2021/07/10 08:08:42;;;;;;;4.80;2.95;;;;;;;36.47;21.58;94589.81;5094644;28;20074;-58
2021/07/10 08:11:09;;;;;;;4.50;3.10;;;;;;;36.89;21.60;94586.59;5076398;28;20043;-55
2021/07/10 08:13:37;;;;;;;6.00;2.80;;;;;;;36.83;21.87;94572.06;5094813;28;20051;-55
2021/07/10 08:16:08;;;;;;;5.93;2.92;;;;;;;37.15;21.51;94582.41;5081097;28;20036;-57
2021/07/10 08:18:35;;;;;;;3.85;2.90;;;;;;;36.72;21.40;94578.69;5091724;28;20366;-61
2021/07/10 08:21:03;;;;;;;6.00;3.00;;;;;;;36.70;21.70;94570.22;5094917;28;20051;-56
2021/07/10 08:23:30;;;;;;;3.13;2.75;;;;;;;37.12;21.28;94574.38;5094346;28;20402;-57
2021/07/10 08:25:57;;;;;;;4.30;2.83;;;;;;;36.70;21.66;94575.66;5094850;28;20044;-57
2021/07/10 08:28:24;;;;;;;3.38;3.08;;;;;;;36.87;21.42;94578.13;5094308;28;20055;-61
2021/07/10 08:30:51;;;;;;;6.45;3.20;;;;;;;36.94;21.76;94573.13;5094190;28;20055;-55
2021/07/10 08:33:18;;;;;;;3.63;2.75;;;;;;;36.44;21.89;94580.56;5076419;28;20043;-59
2021/07/10 08:35:46;;;;;;;5.80;2.95;;;;;;;36.80;21.74;94572.97;5094119;28;20650;-57
2021/07/10 08:38:13;;;;;;;4.32;2.53;;;;;;;36.49;21.81;94559.41;5093655;28;20048;-59
2021/07/10 08:40:40;;;;;;;5.63;2.90;;;;;;;36.70;21.53;94553.88;5094565;28;20074;-57
2021/07/10 08:43:07;;;;;;;4.70;3.05;;;;;;;37.22;21.45;94557.59;5094442;28;20071;-53
2021/07/10 08:45:35;;;;;;;8.48;3.50;;;;;;;37.20;21.59;94565.44;5093644;28;20043;-59
2021/07/10 08:48:04;;;;;;;5.55;2.90;;;;;;;37.53;21.38;94573.06;5094376;28;20047;-58
2021/07/10 08:50:32;;;;;;;6.63;3.47;;;;;;;37.51;21.85;94570.03;5094392;28;20531;-56
2021/07/10 08:53:00;;;;;;;8.75;3.20;;;;;;;37.10;21.02;94563.94;5079238;28;20040;-61
2021/07/10 08:55:27;;;;;;;6.82;3.30;;;;;;;37.31;21.31;94568.53;5092470;28;20076;-56
2021/07/10 08:57:54;;;;;;;2.97;2.70;;;;;;;37.19;21.32;94565.91;5094364;28;20118;-57
2021/07/10 09:00:26;;;;;;;3.38;2.80;;;;;;;37.26;21.36;94557.47;5094229;28;20484;-57
2021/07/10 09:02:55;;;;;;;5.30;3.35;;;;;;;37.60;21.80;94561.84;5093698;28;20040;-59
2021/07/10 09:05:22;;;;;;;6.93;2.97;;;;;;;37.57;21.14;94562.75;5094449;28;20378;-55
2021/07/10 09:08:12;;;;;;;3.83;3.30;;;;;;;37.58;21.37;94558.81;5094432;28;20350;-54
2021/07/10 09:10:41;;;;;;;7.38;2.75;;;;;;;37.29;20.96;94556.56;5094402;28;20044;-56
2021/07/10 09:13:08;;;;;;;4.47;3.00;;;;;;;37.74;20.74;94557.78;5093396;28;20121;-54
2021/07/10 09:15:36;;;;;;;4.63;3.08;;;;;;;37.39;20.35;94562.75;5094427;28;20043;-57
2021/07/10 09:18:10;;;;;;;5.10;3.10;;;;;;;37.61;20.64;94555.16;5093783;28;20052;-53
2021/07/10 09:20:38;;;;;;;5.22;3.10;;;;;;;37.18;21.02;94559.69;5094077;28;20051;-54
2021/07/10 09:23:34;;;;;;;3.38;2.80;;;;;;;37.12;20.58;94555.31;5094149;28;20455;-55
2021/07/10 09:26:18;;;;;;;5.47;3.22;;;;;;;37.55;21.17;94559.72;5065989;28;20052;-54
2021/07/10 09:29:09;;;;;;;3.30;3.00;;;;;;;37.35;21.07;94552.78;5094008;28;20439;-55
2021/07/10 09:31:39;;;;;;;4.00;2.75;;;;;;;37.19;21.00;94561.22;5098173;28;20450;-54
2021/07/10 09:34:12;;;;;;;3.47;2.93;;;;;;;37.33;21.01;94549.75;5098180;28;20358;-54
2021/07/10 09:37:01;;;;;;;5.50;3.20;;;;;;;37.89;21.00;94547.72;5096353;28;20047;-55
2021/07/10 09:39:31;;;;;;;7.97;2.78;;;;;;;37.19;21.05;94547.59;5091888;28;20079;-54
2021/07/10 09:42:00;;;;;;;3.55;2.85;;;;;;;36.96;21.19;94550.91;5097767;28;20370;-50
2021/07/10 09:44:43;;;;;;;4.35;2.90;;;;;;;37.21;20.57;94544.41;5097038;28;20051;-51
2021/07/10 09:47:11;;;;;;;5.22;2.90;;;;;;;37.27;21.16;94546.13;5097383;28;20063;-51
2021/07/10 09:49:38;;;;;;;7.68;3.08;;;;;;;37.49;21.87;94545.22;5097600;28;20051;-54
2021/07/10 09:52:08;;;;;;;3.95;3.13;;;;;;;37.45;21.31;94539.88;5096827;28;20044;-55
2021/07/10 09:54:39;;;;;;;3.67;2.83;;;;;;;37.26;21.00;94533.72;5096814;28;20044;-54
2021/07/10 09:57:12;;;;;;;3.20;2.90;;;;;;;37.24;21.01;94530.66;5096285;28;20285;-54
2021/07/10 09:59:45;;;;;;;4.45;3.00;;;;;;;37.39;20.45;94540.94;5097313;28;20098;-53
2021/07/10 10:02:15;;;;;;;3.25;2.95;;;;;;;37.13;20.59;94541.22;5097425;28;20043;-55
2021/07/10 10:04:42;;;;;;;2.75;2.50;;;;;;;37.44;21.59;94532.91;5097545;28;20039;-54
2021/07/10 10:07:12;;;;;;;3.53;3.00;;;;;;;37.65;20.93;94540.16;5097013;28;20048;-57
2021/07/10 10:09:40;;;;;;;3.67;3.00;;;;;;;37.30;20.65;94539.75;5097190;28;20446;-54
2021/07/10 10:12:11;;;;;;;4.00;2.33;;;;;;;37.65;20.46;94528.50;5095107;28;20048;-54
2021/07/10 10:14:47;;;;;;;4.15;2.90;;;;;;;37.52;20.58;94527.94;5097370;28;20044;-52
2021/07/10 10:17:18;;;;;;;5.60;2.83;;;;;;;37.73;20.27;94527.00;5096442;28;20044;-53
2021/07/10 10:19:45;;;;;;;3.40;2.77;;;;;;;37.42;20.32;94529.13;5096910;28;20328;-53
2021/07/10 10:22:14;;;;;;;5.53;2.50;;;;;;;37.33;20.72;94527.19;5096270;28;20294;-54
2021/07/10 10:24:44;;;;;;;3.08;2.58;;;;;;;37.25;20.45;94526.75;5086826;28;20048;-54
2021/07/10 10:27:11;;;;;;;4.30;2.63;;;;;;;36.86;20.72;94522.16;5096852;28;20374;-58
2021/07/10 10:29:39;;;;;;;3.05;2.75;;;;;;;37.31;20.49;94524.91;5084091;28;20051;-55
2021/07/10 10:32:07;;;;;;;5.10;2.70;;;;;;;37.28;20.81;94525.81;5078629;28;20054;-54
2021/07/10 10:34:36;;;;;;;4.88;3.15;;;;;;;36.99;20.96;94520.06;5079114;28;20059;-53
2021/07/10 10:37:03;;;;;;;5.45;3.45;;;;;;;37.36;20.14;94512.63;5096207;28;20051;-54
2021/07/10 10:39:36;;;;;;;4.50;3.10;;;;;;;37.43;20.57;94519.75;5096075;28;20048;-56
2021/07/10 10:42:15;;;;;;;5.78;3.17;;;;;;;37.06;20.61;94527.91;5096378;28;20371;-53
2021/07/10 10:44:44;;;;;;;3.22;2.90;;;;;;;36.86;20.54;94522.16;5096819;28;20354;-53
2021/07/10 10:47:12;;;;;;;3.15;2.83;;;;;;;37.22;19.60;94513.25;5077838;28;20374;-54
2021/07/10 10:49:56;;;;;;;4.95;3.00;;;;;;;37.04;19.95;94511.25;5096128;28;20048;-58
2021/07/10 10:52:29;;;;;;;34.60;31.17;;;;;;;36.92;20.07;94514.88;5084742;28;20048;-54
2021/07/10 10:54:58;;;;;;;7.75;6.97;;;;;;;37.07;19.63;94513.09;5089803;28;20052;-53
2021/07/10 10:57:37;;;;;;;4.20;3.80;;;;;;;37.28;19.60;94509.47;5096157;28;20051;-53
2021/07/10 11:00:24;;;;;;;5.90;3.40;;;;;;;37.41;19.97;94500.38;5096486;28;20036;-54
2021/07/10 11:03:00;;;;;;;4.32;3.13;;;;;;;37.30;19.67;94498.13;5079863;28;20043;-55
2021/07/10 11:05:33;;;;;;;5.00;2.78;;;;;;;37.64;19.62;94491.53;5096068;28;20047;-54
2021/07/10 11:08:21;;;;;;;5.68;2.63;;;;;;;37.73;19.25;94490.78;5095233;28;20055;-53
2021/07/10 11:10:54;;;;;;;6.53;2.80;;;;;;;37.17;19.15;94495.50;5095509;28;20051;-53
2021/07/10 11:13:31;;;;;;;3.22;2.63;;;;;;;36.69;19.89;94492.44;5095665;28;20052;-53
2021/07/10 11:16:11;;;;;;;4.95;2.72;;;;;;;37.08;19.14;94489.31;5095767;28;20044;-52
2021/07/10 11:18:56;;;;;;;3.70;2.80;;;;;;;36.55;20.12;94490.31;5095593;28;20044;-52
2021/07/10 11:21:37;;;;;;;4.28;2.90;;;;;;;36.68;20.02;94488.19;5095776;28;20456;-52
2021/07/10 11:24:20;;;;;;;;;;;;;;;36.97;19.21;94484.34;5095459;28;20043;-53
2021/07/10 11:27:09;;;;;;;4.75;2.92;;;;;;;36.67;19.66;94481.22;5095333;28;20308;-53
2021/07/10 11:29:39;;;;;;;4.15;2.60;;;;;;;36.62;19.84;94481.09;5094197;28;20055;-53
2021/07/10 11:32:11;;;;;;;5.28;2.80;;;;;;;36.72;20.24;94483.38;5095764;28;20055;-55
2021/07/10 11:34:53;;;;;;;5.25;2.67;;;;;;;36.34;20.08;94477.56;5095796;28;20040;-53
2021/07/10 11:37:21;;;;;;;5.05;2.45;;;;;;;36.81;19.62;94471.00;5094887;28;20048;-56
2021/07/10 11:39:56;;;;;;;5.70;3.50;;;;;;;36.83;19.69;94487.66;5095244;28;20044;-57
2021/07/10 11:42:28;;;;;;;4.57;2.83;;;;;;;36.38;20.04;94472.72;5094112;28;20059;-55